Data for 08/23/2008

Time Sea-Level Adjusted Pressure Absolute Pressure Temperature Relative Humidity Dew Point   
(mb) (inHg) (mb) (inHg) (C) (F) (%) (C) (F)
00:05 1022 30.18 851 25.13 15.1 59.3 35 -0.1 31.9
00:10 1021 30.15 851 25.13 15.2 59.4 35 -0.1 31.8
00:15 1021 30.15 851 25.13 15.2 59.3 36 0.2 32.4
00:20 1021 30.15 851 25.13 15.1 59.1 36 0.3 32.5
00:25 1021 30.15 851 25.13 15.1 59.1 37 0.5 33
00:30 1021 30.15 851 25.13 15 58.9 36 0.3 32.5
00:35 1021 30.15 851 25.13 15.1 59.1 37 0.5 32.8
00:40 1021 30.15 851 25.13 15.1 59.2 37 0.5 33
00:45 1021 30.15 851 25.13 15.1 59.2 38 0.8 33.5
00:50 1021 30.15 851 25.13 15 59 38 0.7 33.3
00:55 1021 30.15 851 25.13 14.9 58.8 38 0.9 33.6
01:00 1021 30.15 851 25.13 14.9 58.8 38 1 33.7
01:05 1021 30.15 851 25.13 14.8 58.6 39 0.9 33.7
01:10 1021 30.15 851 25.13 14.8 58.6 39 1.1 33.9
01:15 1021 30.15 850 25.1 14.7 58.4 40 1.2 34.1
01:20 1021 30.15 850 25.1 14.6 58.3 40 1.2 34.2
01:25 1021 30.15 851 25.13 14.6 58.3 40 1.3 34.3
01:30 1021 30.15 851 25.13 14.5 58.2 40 1.3 34.4
01:35 1021 30.15 851 25.13 14.4 58 41 1.4 34.5
01:40 1021 30.15 851 25.13 14.3 57.8 41 1.4 34.5
01:45 1021 30.15 850 25.1 14.3 57.8 41 1.3 34.4
01:50 1021 30.15 850 25.1 14.4 58 41 1.5 34.6
01:55 1021 30.15 850 25.1 14.4 57.9 41 1.5 34.7
02:00 1021 30.15 850 25.1 14.4 58 41 1.5 34.7
02:05 1021 30.15 850 25.1 14.4 57.9 42 1.6 34.8
02:10 1021 30.15 850 25.1 14.3 57.7 42 1.7 35
02:15 1021 30.15 851 25.13 14.1 57.4 43 1.8 35.2
02:20 1021 30.15 851 25.13 13.9 57.1 44 1.8 35.3
02:25 1021 30.15 851 25.13 13.8 56.9 44 1.9 35.4
02:30 1021 30.15 851 25.13 13.7 56.7 44 1.8 35.2
02:35 1022 30.18 851 25.13 13.8 56.9 43 1.7 35.1
02:40 1022 30.18 851 25.13 13.8 56.9 44 1.9 35.4
02:45 1022 30.18 851 25.13 13.8 56.8 44 1.7 35.1
02:50 1022 30.18 851 25.13 13.8 56.8 44 1.9 35.4
02:55 1022 30.18 851 25.13 13.6 56.5 45 1.8 35.3
03:00 1022 30.18 851 25.13 13.5 56.3 44 1.7 35
03:05 1022 30.18 851 25.13 13.5 56.2 45 1.8 35.3
03:10 1022 30.18 851 25.13 13.2 55.8 46 1.9 35.4
03:15 1022 30.18 851 25.13 13 55.4 47 1.9 35.5
03:20 1022 30.18 851 25.13 13 55.3 47 1.9 35.4
03:25 1022 30.18 851 25.13 13 55.5 46 1.9 35.4
03:30 1022 30.18 851 25.13 13 55.5 47 1.9 35.5
03:35 1022 30.18 851 25.13 13.1 55.5 46 1.9 35.4
03:40 1022 30.18 851 25.13 13 55.4 48 2.3 36.1
03:45 1022 30.18 851 25.13 12.2 54 51 2.3 36.2
03:50 1022 30.18 851 25.13 11.7 53 51 2 35.6
03:55 1022 30.18 851 25.13 11.7 53 51 1.8 35.3
04:00 1022 30.18 851 25.13 11.7 53 50 1.8 35.2
04:05 1022 30.18 851 25.13 11.7 53 51 2 35.7
04:10 1022 30.18 851 25.13 11.4 52.6 53 2.1 35.8
04:15 1022 30.18 851 25.13 11.1 51.9 53 1.8 35.3
04:20 1022 30.18 851 25.13 10.9 51.7 52 1.6 34.9
04:25 1022 30.18 851 25.13 10.7 51.3 54 1.7 35.1
04:30 1022 30.18 851 25.13 10.3 50.6 55 1.8 35.3
04:35 1022 30.18 851 25.13 10.4 50.6 54 1.5 34.7
04:40 1022 30.18 851 25.13 10.7 51.2 54 1.7 35.1
04:45 1022 30.18 851 25.13 10.8 51.4 53 1.7 35.1
04:50 1022 30.18 851 25.13 10.9 51.6 53 1.7 35
04:55 1022 30.18 851 25.13 11.1 51.9 52 1.7 35.1
05:00 1022 30.18 851 25.13 11 51.8 53 1.9 35.4
05:05 1022 30.18 851 25.13 10.9 51.6 54 2 35.5
05:10 1022 30.18 851 25.13 10.6 51.2 54 1.9 35.4
05:15 1022 30.18 851 25.13 10.6 51.1 55 1.9 35.4
05:20 1022 30.18 851 25.13 10.6 51.1 54 1.8 35.2
05:25 1022 30.18 851 25.13 10.7 51.3 54 1.9 35.5
05:30 1022 30.18 851 25.13 10.6 51 55 2 35.5
05:35 1022 30.18 851 25.13 10.4 50.6 55 1.8 35.2
05:40 1022 30.18 851 25.13 10.2 50.4 56 1.8 35.3
05:45 1022 30.18 851 25.13 9.7 49.5 57 1.6 34.8
05:50 1022 30.18 851 25.13 9.4 48.8 59 1.8 35.3
05:55 1022 30.18 851 25.13 8.8 47.9 60 1.6 34.9
06:00 1022 30.18 852 25.16 8.8 47.8 59 1.2 34.2
06:05 1022 30.18 852 25.16 9 48.1 57 0.9 33.7
06:10 1022 30.18 852 25.16 10 49.9 54 1.2 34.2
06:15 1022 30.18 852 25.16 10 49.9 56 1.7 35
06:20 1023 30.21 852 25.16 9.7 49.5 56 1.5 34.7
06:25 1022 30.18 852 25.16 9.7 49.4 57 1.5 34.8
06:30 1022 30.18 852 25.16 9.6 49.3 57 1.5 34.7
06:35 1023 30.21 852 25.16 9.4 49 57 1.3 34.4
06:40 1023 30.21 852 25.16 9.6 49.2 56 1.3 34.3
06:45 1023 30.21 852 25.16 9.5 49.1 57 1.4 34.6
06:50 1023 30.21 852 25.16 9.4 48.9 57 1.3 34.4
06:55 1023 30.21 852 25.16 9.5 49.1 56 1.3 34.3
07:00 1023 30.21 852 25.16 9.7 49.4 56 1.3 34.4
07:05 1023 30.21 852 25.16 9.5 49 57 1.4 34.5
07:10 1023 30.21 852 25.16 9.3 48.7 58 1.5 34.6
07:15 1023 30.21 852 25.16 9 48.2 58 1.3 34.4
07:20 1023 30.21 852 25.16 9.2 48.5 57 1.2 34.2
07:25 1023 30.21 852 25.16 9.4 48.9 57 1.4 34.6
07:30 1023 30.21 852 25.16 9.5 49.1 56 1.2 34.1
07:35 1023 30.21 852 25.16 9.9 49.7 55 1.2 34.1
07:40 1023 30.21 852 25.16 10.1 50.2 55 1.5 34.8
07:45 1023 30.21 852 25.16 10.2 50.4 55 1.6 34.8
07:50 1023 30.21 852 25.16 10.4 50.7 54 1.5 34.7
07:55 1023 30.21 852 25.16 10.7 51.2 53 1.6 34.9
08:00 1023 30.21 852 25.16 11 51.8 53 1.8 35.3
08:05 1023 30.21 852 25.16 11.3 52.3 53 2 35.6
08:10 1023 30.21 852 25.16 11.9 53.3 51 2 35.7
08:15 1023 30.21 852 25.16 12.2 53.9 49 1.9 35.5
08:20 1023 30.21 852 25.16 12.4 54.4 49 2.1 35.8
08:25 1023 30.21 852 25.16 12.7 54.8 48 1.9 35.4
08:30 1023 30.21 852 25.16 12.8 55 49 2.3 36.1
08:35 1023 30.21 852 25.16 13.1 55.6 46 1.9 35.4
08:40 1023 30.21 852 25.16 13.5 56.3 46 2.1 35.8
08:45 1023 30.21 852 25.16 14.3 57.7 43 2 35.6
08:50 1023 30.21 852 25.16 14.5 58.1 45 2.6 36.7
08:55 1023 30.21 852 25.16 14.7 58.5 42 1.9 35.5
09:00 1023 30.21 852 25.16 15.1 59.1 42 2.2 36
09:05 1023 30.21 852 25.16 15.9 60.6 39 2.1 35.7
09:10 1023 30.21 852 25.16 16.3 61.3 39 2.3 36.2
09:15 1023 30.21 852 25.16 16.6 61.8 38 2.4 36.3
09:20 1023 30.21 852 25.16 16.9 62.4 37 2.2 35.9
09:25 1023 30.21 852 25.16 16.4 61.6 41 3.2 37.7
09:30 1023 30.21 852 25.16 16.2 61.1 44 3.9 39
09:35 1023 30.21 852 25.16 16.3 61.3 43 3.8 38.8
09:40 1023 30.21 852 25.16 15.5 59.9 44 3.3 38
09:45 1023 30.21 852 25.16 15.4 59.6 44 3.2 37.8
09:50 1023 30.21 852 25.16 15.5 59.9 43 3 37.3
09:55 1023 30.21 852 25.16 16 60.7 41 2.7 36.8
10:00 1023 30.21 852 25.16 17.3 63.2 36 2.2 36
10:05 1023 30.21 852 25.16 18 64.3 35 2.5 36.5
10:10 1023 30.21 852 25.16 17.2 63 38 3 37.3
10:15 1023 30.21 852 25.16 17.5 63.6 35 2.2 35.9
10:20 1023 30.21 852 25.16 18.6 65.5 33 2.3 36.1
10:25 1023 30.21 852 25.16 18.4 65.2 33 2.2 35.9
10:30 1023 30.21 852 25.16 19.2 66.6 32 2.2 35.9
10:35 1023 30.21 852 25.16 19.1 66.3 33 2.8 37
10:40 1023 30.21 852 25.16 18.7 65.7 33 2.1 35.7
10:45 1023 30.21 852 25.16 19.9 67.8 30 1.9 35.5
10:50 1023 30.21 852 25.16 20.1 68.1 30 2.1 35.7
10:55 1023 30.21 852 25.16 20.1 68.1 30 1.9 35.5
11:00 1023 30.21 852 25.16 20.2 68.4 29 1.8 35.3
11:05 1023 30.21 852 25.16 20.1 68.1 30 2 35.6
11:10 1023 30.21 852 25.16 20.1 68.1 29 1.8 35.2
11:15 1023 30.21 852 25.16 20.5 68.8 29 2.2 35.9
11:20 1023 30.21 852 25.16 20.6 69.1 30 2.4 36.4
11:25 1023 30.21 852 25.16 21.1 69.9 28 2.1 35.8
11:30 1023 30.21 852 25.16 21 69.8 29 2.6 36.8
11:35 1023 30.21 852 25.16 21.2 70.1 28 2 35.6
11:40 1023 30.21 852 25.16 21.4 70.5 28 2.3 36.2
11:45 1023 30.21 852 25.16 21.1 70 29 2.6 36.7
11:50 1023 30.21 852 25.16 21.2 70.1 29 2.4 36.3
11:55 1023 30.21 852 25.16 21.8 71.2 27 1.9 35.5
12:00 1022 30.18 852 25.16 22 71.7 26 1.6 34.9
12:05 1022 30.18 852 25.16 22.9 73.2 25 1.9 35.4
12:10 1022 30.18 852 25.16 22.7 72.9 24 1.3 34.3
12:15 1022 30.18 852 25.16 21.6 71 24 0.6 33.1
12:20 1022 30.18 852 25.16 22.2 72 24 1 33.7
12:25 1022 30.18 852 25.16 21.7 71.1 25 0.8 33.4
12:30 1022 30.18 852 25.16 22.3 72.1 25 1.5 34.8
12:35 1022 30.18 852 25.16 22.9 73.3 26 2.4 36.4
12:40 1022 30.18 852 25.16 23 73.3 26 2.8 37
12:45 1022 30.18 851 25.13 22.9 73.2 25 2.3 36.1
12:50 1022 30.18 851 25.13 23.6 74.6 23 1.7 35.1
12:55 1022 30.18 851 25.13 24.1 75.3 23 2.1 35.8
13:00 1022 30.18 851 25.13 24.2 75.5 22 1.4 34.6
13:05 1022 30.18 851 25.13 24.3 75.7 23 1.9 35.4
13:10 1022 30.18 851 25.13 23.8 74.9 23 1.8 35.3
13:15 1022 30.18 851 25.13 24.7 76.5 22 2 35.6
13:20 1022 30.18 851 25.13 25.3 77.6 20 1.2 34.1
13:25 1022 30.18 851 25.13 24.9 76.8 22 2 35.6
13:30 1022 30.18 851 25.13 24.5 76 23 2.4 36.3
13:35 1022 30.18 851 25.13 24.4 75.8 21 0.9 33.5
13:40 1022 30.18 851 25.13 25.1 77.2 19 0.2 32.3
13:45 1022 30.18 851 25.13 25.8 78.4 19 0.6 33
13:50 1022 30.18 851 25.13 26.1 79 19 0.6 33.1
13:55 1022 30.18 851 25.13 25.7 78.2 13 -4.4 24
14:00 1022 30.18 851 25.13 25.6 78 14 -3.3 26
14:05 1022 30.18 851 25.13 26.3 79.4 14 -3.1 26.3
14:10 1021 30.15 851 25.13 27.1 80.7 13 -3 26.6
14:15 1021 30.15 851 25.13 27.2 81 14 -2.1 28.2
14:20 1021 30.15 851 25.13 27.6 81.6 13 -3.2 26.3
14:25 1021 30.15 851 25.13 27.1 80.9 14 -2.7 27.1
14:30 1021 30.15 851 25.13 27.7 81.9 13 -2.5 27.4
14:35 1021 30.15 850 25.1 28 82.4 12 -4.2 24.4
14:40 1021 30.15 850 25.1 28 82.4 12 -3.6 25.5
14:45 1021 30.15 850 25.1 28 82.5 11 -4.8 23.3
14:50 1021 30.15 850 25.1 27.8 82.1 12 -4 24.9
14:55 1021 30.15 850 25.1 27.5 81.6 11 -5 23.1
15:00 1021 30.15 850 25.1 28.1 82.6 11 -4.8 23.4
15:05 1021 30.15 850 25.1 28.3 82.9 11 -4.4 24
15:10 1021 30.15 850 25.1 28.3 82.9 11 -5 23
15:15 1021 30.15 850 25.1 28.1 82.6 11 -5.3 22.4
15:20 1021 30.15 850 25.1 28 82.4 12 -3.9 25
15:25 1021 30.15 850 25.1 28.2 82.7 12 -3.3 26
15:30 1021 30.15 850 25.1 28.7 83.6 11 -4.6 23.6
15:35 1021 30.15 850 25.1 27.4 81.4 11 -5.8 21.5
15:40 1021 30.15 850 25.1 26.9 80.3 11 -5.4 22.2
15:45 1021 30.15 850 25.1 27.8 82 11 -5.1 22.7
15:50 1020 30.12 850 25.1 27.7 81.8 11 -4.7 23.5
15:55 1020 30.12 850 25.1 27.8 82 11 -5.6 21.9
16:00 1020 30.12 850 25.1 27.6 81.7 11 -4.9 23.2
16:05 1020 30.12 849 25.07 26.9 80.5 11 -5.5 22.1
16:10 1020 30.12 849 25.07 27 80.7 12 -5 22.9
16:15 1020 30.12 849 25.07 28 82.5 11 -4.9 23.2
16:20 1020 30.12 849 25.07 29.2 84.5 11 -4.4 24.2
16:25 1020 30.12 849 25.07 29 84.2 11 -4.4 24.1
16:30 1020 30.12 849 25.07 28.3 82.9 11 -4.4 24.1
16:35 1020 30.12 849 25.07 28.4 83.2 11 -4.5 23.9
16:40 1020 30.12 849 25.07 28.7 83.6 11 -4.5 23.8
16:45 1020 30.12 849 25.07 28.8 83.9 11 -4.5 24
16:50 1020 30.12 849 25.07 29.3 84.7 11 -3.9 24.9
16:55 1020 30.12 849 25.07 29.1 84.3 10 -4.8 23.4
17:00 1020 30.12 849 25.07 29.9 85.7 10 -4.3 24.2
17:05 1020 30.12 849 25.07 29.3 84.7 11 -3.4 26
17:10 1020 30.12 849 25.07 28.7 83.6 11 -5 23
17:15 1020 30.12 849 25.07 29 84.1 11 -4.5 23.9
17:20 1020 30.12 849 25.07 28.9 84 11 -4.6 23.8
17:25 1020 30.12 849 25.07 29.6 85.2 10 -4.9 23.2
17:30 1020 30.12 849 25.07 29.8 85.6 10 -5.2 22.7
17:35 1020 30.12 849 25.07 29.7 85.4 10 -4.7 23.5
17:40 1020 30.12 849 25.07 29.2 84.6 9 -6.1 21.1
17:45 1020 30.12 849 25.07 29.4 84.9 11 -4.4 24
17:50 1020 30.12 849 25.07 29.6 85.2 10 -5.4 22.3
17:55 1020 30.12 849 25.07 29.3 84.7 10 -4.9 23.1
18:00 1020 30.12 849 25.07 28.5 83.4 11 -4.6 23.8
18:05 1019 30.09 849 25.07 28.5 83.4 10 -5.8 21.6
18:10 1019 30.09 849 25.07 29 84.2 10 -4.8 23.3
18:15 1019 30.09 849 25.07 29.1 84.4 11 -4.6 23.6
18:20 1019 30.09 849 25.07 28.8 83.8 10 -5 23
18:25 1019 30.09 849 25.07 28.6 83.5 11 -4.4 24.1
18:30 1019 30.09 849 25.07 28.3 82.9 11 -4.5 23.9
18:35 1019 30.09 849 25.07 28.3 83 10 -5.4 22.2
18:40 1019 30.09 849 25.07 28 82.3 11 -5.1 22.9
18:45 1019 30.09 849 25.07 27.6 81.7 11 -5.8 21.5
18:50 1019 30.09 849 25.07 27.3 81.2 11 -5.2 22.6
18:55 1019 30.09 849 25.07 27.1 80.8 12 -4.8 23.3
19:00 1019 30.09 849 25.07 27 80.5 13 -3 26.6
19:05 1019 30.09 849 25.07 26.9 80.3 13 -3.2 26.3
19:10 1019 30.09 849 25.07 26.8 80.2 13 -3.2 26.3
19:15 1019 30.09 848 25.04 26.7 80 14 -2.4 27.6
19:20 1019 30.09 848 25.04 26.5 79.7 14 -2.8 27
19:25 1019 30.09 848 25.04 26.4 79.4 14 -2.7 27.1
19:30 1019 30.09 848 25.04 26.2 79.2 14 -3.2 26.2
19:35 1019 30.09 848 25.04 26.1 78.9 14 -3.5 25.7
19:40 1019 30.09 848 25.04 25.9 78.6 15 -2.7 27.2
19:45 1019 30.09 848 25.04 25.8 78.4 15 -2.5 27.4
19:50 1019 30.09 848 25.04 25.5 78 17 -1 30.2
19:55 1019 30.09 848 25.04 24.9 76.8 19 0.2 32.3
20:00 1019 30.09 848 25.04 24.4 76 26 3.8 38.8
20:05 1019 30.09 849 25.07 23.9 75.1 29 4.9 40.9
20:10 1019 30.09 849 25.07 23.1 73.5 31 5.1 41.2
20:15 1019 30.09 849 25.07 22 71.7 30 3.9 39.1
20:20 1019 30.09 849 25.07 21.3 70.4 30 3.3 38
20:25 1019 30.09 849 25.07 21.1 69.9 28 1.9 35.5
20:30 1019 30.09 849 25.07 21.1 70 27 1.8 35.2
20:35 1020 30.12 849 25.07 20.8 69.4 30 2.5 36.5
20:40 1020 30.12 849 25.07 20.1 68.2 33 3.6 38.4
20:45 1020 30.12 849 25.07 19.1 66.4 36 4 39.2
20:50 1020 30.12 849 25.07 18.6 65.5 35 3 37.4
20:55 1020 30.12 849 25.07 18.2 64.7 37 3.5 38.2
21:00 1020 30.12 849 25.07 19 66.1 26 -1 30.2
21:05 1020 30.12 849 25.07 19.6 67.2 28 0.9 33.6
21:10 1020 30.12 849 25.07 19.1 66.3 26 -0.9 30.3
21:15 1020 30.12 849 25.07 19.4 66.9 25 -1.2 29.9
21:20 1020 30.12 849 25.07 19.3 66.7 27 -0.1 31.8
21:25 1020 30.12 849 25.07 18.7 65.6 28 0.2 32.3
21:30 1020 30.12 849 25.07 17.9 64.3 29 -0.3 31.5
21:35 1020 30.12 849 25.07 17.7 63.9 28 -1 30.2
21:40 1020 30.12 849 25.07 18 64.5 26 -1.4 29.4
21:45 1020 30.12 849 25.07 18.3 65 26 -1.2 29.8
21:50 1020 30.12 849 25.07 18.2 64.8 26 -1.6 29.2
21:55 1020 30.12 849 25.07 18.4 65.2 26 -1.2 29.9
22:00 1020 30.12 849 25.07 18.2 64.8 27 -1 30.2
22:05 1020 30.12 849 25.07 18.4 65.1 26 -1.2 29.8
22:10 1020 30.12 849 25.07 18.4 65.2 27 -0.6 30.9
22:15 1020 30.12 849 25.07 18.4 65.1 27 -0.6 31
22:20 1020 30.12 849 25.07 18.4 65.2 29 0.3 32.5
22:25 1020 30.12 849 25.07 18.1 64.6 27 -0.9 30.4
22:30 1020 30.12 849 25.07 17.9 64.2 29 -0.4 31.3
22:35 1020 30.12 849 25.07 17.7 63.8 29 -0.6 31
22:40 1020 30.12 849 25.07 17.6 63.6 29 -0.5 31.1
22:45 1020 30.12 849 25.07 17.4 63.3 30 -0.2 31.6
22:50 1020 30.12 849 25.07 17.2 62.9 31 0.2 32.3
22:55 1020 30.12 849 25.07 17.1 62.7 32 0.2 32.3
23:00 1020 30.12 849 25.07 17 62.5 30 -0.6 30.9
23:05 1020 30.12 849 25.07 17 62.7 29 -0.9 30.4
23:10 1020 30.12 849 25.07 17.2 62.9 29 -0.8 30.6
23:15 1020 30.12 849 25.07 17.2 62.9 30 -0.7 30.8
23:20 1020 30.12 849 25.07 17.1 62.7 29 -0.9 30.4
23:25 1020 30.12 849 25.07 17 62.6 30 -0.8 30.6
23:30 1020 30.12 849 25.07 16.9 62.4 29 -0.9 30.3
23:35 1020 30.12 849 25.07 17 62.7 29 -1.1 30
23:40 1020 30.12 849 25.07 17 62.7 29 -1.2 29.9
23:45 1020 30.12 849 25.07 17.1 62.7 29 -0.9 30.3
23:50 1020 30.12 849 25.07 17.1 62.8 29 -0.9 30.3
23:55 1020 30.12 849 25.07 17.5 63.5 28 -1 30.2
24:00 1020 30.12 849 25.07 17.7 63.9 28 -0.8 30.5